createdAt,value
2023-04-26T00:04:05.544Z,3.15
2023-04-26T00:09:28.084Z,3.13
2023-04-26T00:14:50.963Z,3.10
2023-04-26T00:20:14.445Z,3.08
2023-04-26T00:25:36.834Z,3.00
2023-04-26T00:30:59.074Z,2.86
2023-04-26T00:36:21.477Z,2.75
2023-04-26T00:41:43.784Z,2.59
2023-04-26T00:47:07.077Z,2.57
2023-04-26T00:52:29.649Z,2.39
2023-04-26T00:57:52.328Z,2.29
2023-04-26T01:03:14.899Z,2.23
2023-04-26T01:08:37.488Z,2.17
2023-04-26T01:14:00.789Z,2.03
2023-04-26T01:19:26.974Z,1.97
2023-04-26T01:24:50.325Z,1.89
2023-04-26T01:30:14.250Z,1.92
2023-04-26T01:35:36.540Z,2.01
2023-04-26T01:40:58.766Z,2.05
2023-04-26T01:46:21.249Z,2.15
2023-04-26T01:51:44.000Z,2.29
2023-04-26T01:57:06.370Z,2.35
2023-04-26T02:02:29.908Z,2.47
2023-04-26T02:07:52.357Z,2.55
2023-04-26T02:13:15.019Z,2.67
2023-04-26T02:18:37.501Z,2.59
2023-04-26T02:23:59.722Z,2.46
2023-04-26T02:29:32.623Z,2.25
2023-04-26T02:34:46.622Z,2.11
2023-04-26T02:40:12.314Z,1.99
2023-04-26T02:45:34.699Z,2.00
2023-04-26T02:50:57.489Z,1.98
2023-04-26T02:56:20.350Z,1.92
2023-04-26T03:01:42.626Z,1.79
2023-04-26T03:07:04.902Z,1.76
2023-04-26T03:12:27.231Z,1.65
2023-04-26T03:17:50.093Z,1.64
2023-04-26T03:23:12.393Z,1.55
2023-04-26T03:28:34.737Z,1.47
2023-04-26T03:33:56.971Z,1.40
2023-04-26T03:39:19.311Z,1.38
2023-04-26T03:44:41.627Z,1.39
2023-04-26T03:50:04.039Z,1.35
2023-04-26T03:55:26.717Z,1.33
2023-04-26T04:00:52.087Z,1.37
2023-04-26T04:06:14.594Z,1.41
2023-04-26T04:11:36.826Z,1.54
2023-04-26T04:16:59.884Z,1.62
2023-04-26T04:22:22.225Z,1.74
2023-04-26T04:27:47.184Z,1.86
2023-04-26T04:33:09.724Z,1.95
2023-04-26T04:38:32.121Z,2.14
2023-04-26T04:43:55.256Z,2.25
2023-04-26T04:49:19.643Z,2.32
2023-04-26T04:54:41.884Z,2.49
2023-04-26T05:00:06.217Z,2.69
2023-04-26T05:05:29.436Z,2.84
2023-04-26T05:10:52.246Z,2.96
2023-04-26T05:16:14.727Z,3.06
2023-04-26T05:21:37.053Z,3.21
2023-04-26T05:26:59.981Z,3.30
2023-04-26T05:32:22.225Z,3.37
2023-04-26T05:37:44.488Z,3.38
2023-04-26T05:43:06.728Z,3.36
2023-04-26T05:48:30.111Z,3.51
2023-04-26T05:53:52.727Z,3.59
2023-04-26T05:59:16.468Z,3.69
2023-04-26T06:04:39.294Z,3.76
2023-04-26T06:10:02.885Z,3.73
2023-04-26T06:15:25.695Z,3.92
2023-04-26T06:20:47.924Z,4.11
2023-04-26T06:26:10.175Z,4.09
2023-04-26T06:31:32.479Z,4.35
2023-04-26T06:36:54.840Z,4.37
2023-04-26T06:42:18.235Z,4.56
2023-04-26T06:47:40.515Z,4.84
2023-04-26T06:53:02.948Z,4.93
2023-04-26T06:58:25.210Z,5.03
2023-04-26T07:03:48.083Z,5.05
2023-04-26T07:09:13.553Z,5.14
2023-04-26T07:14:37.862Z,5.27
2023-04-26T07:20:00.193Z,5.16
2023-04-26T07:25:22.857Z,5.40
2023-04-26T07:30:45.116Z,5.53
2023-04-26T07:36:14.213Z,5.80
2023-04-26T07:41:37.053Z,5.87
2023-04-26T07:46:59.391Z,5.88
2023-04-26T07:52:22.704Z,6.01
2023-04-26T07:57:45.331Z,6.50
2023-04-26T08:03:08.711Z,6.35
2023-04-26T08:08:33.959Z,6.24
2023-04-26T08:13:56.601Z,5.94
2023-04-26T08:19:18.915Z,5.92
2023-04-26T08:24:41.205Z,6.58
2023-04-26T08:30:03.527Z,6.52
2023-04-26T08:35:26.014Z,6.68
2023-04-26T08:40:48.950Z,6.25
2023-04-26T08:46:13.589Z,6.58
2023-04-26T08:51:37.521Z,6.47
2023-04-26T08:57:02.362Z,6.55
2023-04-26T09:02:27.715Z,6.41
2023-04-26T09:07:53.635Z,6.38
2023-04-26T09:13:15.971Z,6.39
2023-04-26T09:18:39.304Z,6.72
2023-04-26T09:24:20.724Z,6.80
2023-04-26T09:29:43.061Z,6.55
2023-04-26T09:35:05.281Z,6.50
2023-04-26T09:40:34.105Z,6.80
2023-04-26T09:46:15.476Z,7.25
2023-04-26T09:51:37.895Z,7.32
2023-04-26T09:57:07.534Z,7.32
2023-04-26T10:02:36.035Z,7.94
2023-04-26T10:07:58.480Z,7.95
2023-04-26T10:13:22.426Z,7.64
2023-04-26T10:18:45.886Z,7.67
2023-04-26T10:24:09.328Z,7.25
2023-04-26T10:29:33.416Z,7.31
2023-04-26T10:35:14.599Z,8.44
2023-04-26T10:40:46.675Z,7.36
2023-04-26T10:46:12.568Z,7.05
2023-04-26T10:51:35.755Z,7.25
2023-04-26T10:57:01.645Z,7.55
2023-04-26T11:02:24.079Z,7.50
2023-04-26T11:07:58.483Z,7.23
2023-04-26T11:13:21.675Z,7.10
2023-04-26T11:18:46.420Z,7.32
2023-04-26T11:24:14.621Z,7.51
2023-04-26T11:29:40.351Z,7.60
2023-04-26T11:35:02.739Z,7.52
2023-04-26T11:40:27.300Z,9.05
2023-04-26T11:45:51.318Z,8.75
2023-04-26T11:51:19.073Z,8.41
2023-04-26T11:56:41.327Z,8.80
2023-04-26T12:02:06.374Z,9.67
2023-04-26T12:07:30.860Z,9.24
2023-04-26T12:12:57.935Z,8.36
2023-04-26T12:18:25.285Z,7.93
2023-04-26T12:23:51.024Z,7.96
2023-04-26T12:29:13.845Z,9.48
2023-04-26T12:34:36.592Z,10.10
2023-04-26T12:39:59.029Z,10.57
2023-04-26T12:45:21.503Z,8.83
2023-04-26T12:50:44.588Z,8.27
2023-04-26T12:56:07.164Z,8.53
2023-04-26T13:01:32.273Z,8.73
2023-04-26T13:06:55.076Z,8.65
2023-04-26T13:12:17.659Z,9.00
2023-04-26T13:17:43.386Z,10.07
2023-04-26T13:23:06.043Z,9.25
2023-04-26T13:28:28.849Z,9.73
2023-04-26T13:33:51.679Z,10.09
2023-04-26T13:39:14.386Z,8.93
2023-04-26T13:44:37.709Z,8.70
2023-04-26T13:50:00.452Z,8.55
2023-04-26T13:55:26.618Z,8.56
2023-04-26T14:00:49.912Z,8.47
2023-04-26T14:06:14.057Z,8.53
2023-04-26T14:11:36.503Z,8.42
2023-04-26T14:16:58.918Z,8.34
2023-04-26T14:22:21.318Z,8.46
2023-04-26T14:27:44.019Z,8.88
2023-04-26T14:33:06.587Z,10.26
2023-04-26T14:38:29.623Z,11.15
2023-04-26T14:43:55.123Z,11.27
2023-04-26T14:49:17.620Z,11.75
2023-04-26T14:54:41.876Z,10.00
2023-04-26T15:00:11.726Z,9.64
2023-04-26T15:05:34.151Z,10.66
2023-04-26T15:10:56.946Z,11.94
2023-04-26T15:16:23.195Z,11.58
2023-04-26T15:21:45.744Z,11.63
2023-04-26T15:27:09.374Z,10.77
2023-04-26T15:32:32.482Z,10.04
2023-04-26T15:37:56.520Z,9.39
2023-04-26T15:43:19.800Z,9.35
2023-04-26T15:48:43.049Z,10.71
2023-04-26T15:54:05.576Z,11.16
2023-04-26T15:59:28.796Z,11.17
2023-04-26T16:04:51.271Z,9.64
2023-04-26T16:10:15.177Z,9.07
2023-04-26T16:15:38.065Z,9.25
2023-04-26T16:21:03.094Z,10.03
2023-04-26T16:26:26.044Z,9.75
2023-04-26T16:31:49.232Z,9.15
2023-04-26T16:37:11.977Z,8.63
2023-04-26T16:42:37.349Z,8.48
2023-04-26T16:48:00.842Z,8.20
2023-04-26T16:53:23.444Z,8.01
2023-04-26T16:58:47.956Z,7.85
2023-04-26T17:04:13.338Z,7.68
2023-04-26T17:09:38.699Z,7.51
2023-04-26T17:15:04.450Z,7.58
2023-04-26T17:20:26.392Z,7.81
2023-04-26T17:25:49.700Z,8.28
2023-04-26T17:31:12.982Z,8.08
2023-04-26T17:36:35.608Z,8.22
2023-04-26T17:41:58.626Z,7.86
2023-04-26T17:47:22.254Z,7.39
2023-04-26T17:52:46.179Z,7.08
2023-04-26T17:58:08.985Z,6.87
2023-04-26T18:03:32.052Z,6.54
2023-04-26T18:08:54.595Z,6.20
2023-04-26T18:14:17.064Z,6.00
2023-04-26T18:19:39.547Z,5.70
2023-04-26T18:25:01.952Z,5.39
2023-04-26T18:30:25.239Z,5.14
2023-04-26T18:35:47.852Z,4.96
2023-04-26T18:41:10.083Z,4.88
2023-04-26T18:46:32.491Z,4.72
2023-04-26T18:51:54.764Z,4.49
2023-04-26T18:57:18.633Z,4.35
2023-04-26T19:02:41.445Z,4.15
2023-04-26T19:08:06.677Z,3.91
2023-04-26T19:13:29.807Z,3.74
2023-04-26T19:18:52.513Z,3.43
2023-04-26T19:24:14.835Z,3.26
2023-04-26T19:29:37.234Z,3.10
2023-04-26T19:34:59.598Z,3.21
2023-04-26T19:40:22.535Z,3.22
2023-04-26T19:45:44.844Z,3.20
2023-04-26T19:51:07.308Z,3.32
2023-04-26T19:56:29.610Z,3.30
2023-04-26T20:01:53.787Z,3.23
2023-04-26T20:07:15.809Z,3.09
2023-04-26T20:12:39.534Z,2.92
2023-04-26T20:18:02.491Z,2.74
2023-04-26T20:23:25.149Z,2.81
2023-04-26T20:28:47.914Z,2.86
2023-04-26T20:34:10.626Z,2.71
2023-04-26T20:39:34.280Z,2.57
2023-04-26T20:44:57.935Z,2.41
2023-04-26T20:50:21.625Z,2.32
2023-04-26T20:55:44.069Z,2.28
2023-04-26T21:01:12.931Z,2.49
2023-04-26T21:06:35.223Z,2.70
2023-04-26T21:11:57.560Z,2.68
2023-04-26T21:17:20.447Z,2.58
2023-04-26T21:22:42.767Z,2.48
2023-04-26T21:28:05.025Z,2.38
2023-04-26T21:33:27.480Z,2.28
2023-04-26T21:38:49.766Z,2.06
2023-04-26T21:44:12.457Z,2.10
2023-04-26T21:49:35.466Z,2.12
2023-04-26T21:54:57.874Z,2.11
2023-04-26T22:00:21.480Z,2.22
2023-04-26T22:05:44.892Z,2.33
2023-04-26T22:11:07.788Z,2.34
2023-04-26T22:16:30.145Z,2.42
2023-04-26T22:21:54.381Z,2.52
2023-04-26T22:27:16.765Z,2.73
2023-04-26T22:32:39.123Z,2.84
2023-04-26T22:38:01.653Z,2.80
2023-04-26T22:43:24.271Z,2.66
2023-04-26T22:48:46.640Z,2.58
2023-04-26T22:54:08.863Z,2.54
2023-04-26T22:59:32.756Z,2.44
2023-04-26T23:04:55.080Z,2.32
2023-04-26T23:10:18.747Z,2.20
2023-04-26T23:15:42.233Z,2.28
2023-04-26T23:21:04.479Z,2.37
2023-04-26T23:26:26.735Z,2.46
2023-04-26T23:31:49.044Z,2.65
2023-04-26T23:37:11.531Z,2.63
2023-04-26T23:42:33.770Z,2.56
2023-04-26T23:47:56.084Z,2.42
2023-04-26T23:53:18.416Z,2.34
2023-04-26T23:58:40.735Z,2.30
